Rawlins, WY

9:50 AM MST on February 12, 2016 (GMT -0700)
Rawlins Municipal | | Change Station
CLOSE
Current Station
Airport
Location: Rawlins,
Elevation: 6814 ft
Nearby Weather Stations

Elev 6814 ft 41.81 °N, 107.20 °W | Updated 57 minutes ago

Partly Cloudy
Partly Cloudy
36 °F
Feels Like 26 °F
N
16
Wind Variable Wind from WSW

Today
High -- | Low -- °F
--% Chance of Precip.
Yesterday
High -- | Low -- °F
Precip. -- in
Pressure 30.33 in
Visibility 10.0 miles
Clouds Few 7000 ft
Windchill 26 °F
Dew Point 20 °F
Humidity 52%
Rainfall 0.00 in
Snow Depth Not available.
7:08 AM 5:37 PM
Waxing Crescent, 22% visible
METAR KRWL 121553Z AUTO 24014KT 10SM FEW070 02/M07 A3034 RMK AO2 SLP271 T00221067
Pressure 30.33 in
Visibility 10.0 miles
Clouds Few 7000 ft
Windchill 26 °F
Dew Point 20 °F
Humidity 52%
Rainfall 0.00 in
Snow Depth Not available.
7:08 AM 5:37 PM
Waxing Crescent, 22% visible
METAR KRWL 121553Z AUTO 24014KT 10SM FEW070 02/M07 A3034 RMK AO2 SLP271 T00221067

10-Day Weather Forecast

Almanac

Astronomy

Feb. 12, 2016 Rise Set
Actual Time
Civil Twilight
Nautical Twilight
Astronomical Twilight
Moon
Length of Visible Light
Length of Day
Tomorrow will be .
, % of the Moon is Illuminated

Today's Extremes

State Highs State Lows

Community

WunderPhotos

Upload Photos

1,892,354 photos uploaded!

WunderBlog® & News

Nearby

Air Quality

  Air Quality AQ Index Pollutant
Not available.

Snow Depth

Station Depth Elevation

Earthquake Activity

City Distance Mag. Time & Date
Minimum magnitude displayed is 2.5.

Coastal Water Temperatures

Place Temperature

Stations

Nearby Weather Stations

Station Location Temp. Windchill Dew Point Humidity Wind Precip. Elev Updated Type
                   

Watches & Warnings

There are currently no watches in effect.